RRR184 EGVN-LOWI
Flight info
| Callsign | RRR184 |
|---|---|
| Flight time | 1h 44m |
| Altitude | 31000 |
| Route | DCT COWLY DCT WEALD DCT DIMAL DCT AKELU DCT USUDO DCT ELMEM ELMEM1A |
| Aircraft | A400/H-S/L |
Departure
| Time | 2026-04-22 12:29 |
|---|---|
| Airport | RAF Brize Norton (EGVN) |
Arrival
| Time | 2026-04-22 14:14 |
|---|---|
| Airport | Innsbruck Airport (LOWI) |
| Time | Latitude | Longitude | Altitude | Speed | Heading |
|---|---|---|---|---|---|
| 2026-04-22 12:24 | 51.74625 | -1.59022 | 291 ft | 0 kts | 345° |
| 2026-04-22 12:26 | 51.74627 | -1.59022 | 291 ft | 2 kts | 345° |
| 2026-04-22 12:26 | 51.74666 | -1.59119 | 295 ft | 19 kts | 301° |
| 2026-04-22 12:26 | 51.74724 | -1.59399 | 297 ft | 34 kts | 272° |
| 2026-04-22 12:26 | 51.74730 | -1.59610 | 295 ft | 1 kts | 272° |
| 2026-04-22 12:27 | 51.74723 | -1.59767 | 296 ft | 26 kts | 254° |
| 2026-04-22 12:27 | 51.74661 | -1.60111 | 302 ft | 33 kts | 254° |
| 2026-04-22 12:27 | 51.74596 | -1.60347 | 304 ft | 10 kts | 256° |
| 2026-04-22 12:27 | 51.74612 | -1.60355 | 305 ft | 2 kts | 21° |
| 2026-04-22 12:28 | 51.74627 | -1.60305 | 304 ft | 9 kts | 71° |
| 2026-04-22 12:28 | 51.74635 | -1.60269 | 302 ft | 0 kts | 71° |
| 2026-04-22 12:28 | 51.74636 | -1.60261 | 302 ft | 7 kts | 71° |
| 2026-04-22 12:29 | 51.74732 | -1.59722 | 295 ft | 94 kts | 73° |
| 2026-04-22 12:29 | 51.74985 | -1.58359 | 466 ft | 149 kts | 73° |
| 2026-04-22 12:29 | 51.75333 | -1.56667 | 991 ft | 168 kts | 78° |
| 2026-04-22 12:29 | 51.75379 | -1.54749 | 1677 ft | 179 kts | 105° |
| 2026-04-22 12:30 | 51.74071 | -1.50803 | 3032 ft | 220 kts | 116° |
| 2026-04-22 12:30 | 51.73325 | -1.48581 | 3858 ft | 229 kts | 115° |
| 2026-04-22 12:30 | 51.72601 | -1.46272 | 4811 ft | 232 kts | 115° |
| 2026-04-22 12:31 | 51.71902 | -1.43899 | 5553 ft | 236 kts | 115° |
| 2026-04-22 12:31 | 51.71214 | -1.41462 | 6293 ft | 241 kts | 114° |
| 2026-04-22 12:31 | 51.70530 | -1.38972 | 7220 ft | 244 kts | 114° |
| 2026-04-22 12:31 | 51.69842 | -1.36441 | 8091 ft | 249 kts | 114° |
| 2026-04-22 12:32 | 51.69140 | -1.33856 | 8948 ft | 255 kts | 114° |
| 2026-04-22 12:32 | 51.67684 | -1.28516 | 10606 ft | 266 kts | 115° |
| 2026-04-22 12:32 | 51.66921 | -1.25737 | 11255 ft | 275 kts | 115° |
| 2026-04-22 12:33 | 51.66147 | -1.22928 | 11958 ft | 281 kts | 115° |
| 2026-04-22 12:33 | 51.65348 | -1.20030 | 12721 ft | 285 kts | 115° |
| 2026-04-22 12:33 | 51.64535 | -1.17083 | 13514 ft | 289 kts | 115° |
| 2026-04-22 12:33 | 51.63713 | -1.14108 | 14283 ft | 293 kts | 115° |
| 2026-04-22 12:34 | 51.62876 | -1.11085 | 14952 ft | 298 kts | 114° |
| 2026-04-22 12:34 | 51.62027 | -1.08021 | 15623 ft | 303 kts | 114° |
| 2026-04-22 12:34 | 51.61182 | -1.04873 | 16267 ft | 309 kts | 113° |
| 2026-04-22 12:34 | 51.60347 | -1.01645 | 16900 ft | 316 kts | 112° |
| 2026-04-22 12:35 | 51.59511 | -0.98347 | 17548 ft | 322 kts | 111° |
| 2026-04-22 12:35 | 51.58664 | -0.94984 | 18214 ft | 327 kts | 111° |
| 2026-04-22 12:35 | 51.57801 | -0.91554 | 18836 ft | 334 kts | 111° |
| 2026-04-22 12:35 | 51.56920 | -0.88070 | 19380 ft | 340 kts | 111° |
| 2026-04-22 12:36 | 51.56020 | -0.84526 | 19940 ft | 346 kts | 111° |
| 2026-04-22 12:36 | 51.55099 | -0.80914 | 20509 ft | 351 kts | 111° |
| 2026-04-22 12:36 | 51.54159 | -0.77242 | 21075 ft | 358 kts | 110° |
| 2026-04-22 12:36 | 51.53207 | -0.73525 | 21658 ft | 363 kts | 110° |
| 2026-04-22 12:37 | 51.52235 | -0.69741 | 22179 ft | 369 kts | 110° |
| 2026-04-22 12:37 | 51.51247 | -0.65900 | 22715 ft | 376 kts | 110° |
| 2026-04-22 12:37 | 51.50240 | -0.61993 | 23267 ft | 380 kts | 110° |
| 2026-04-22 12:37 | 51.49235 | -0.58106 | 23833 ft | 384 kts | 110° |
| 2026-04-22 12:38 | 51.48203 | -0.54119 | 24305 ft | 388 kts | 110° |
| 2026-04-22 12:38 | 51.47150 | -0.50061 | 24769 ft | 392 kts | 110° |
| 2026-04-22 12:38 | 51.46110 | -0.46057 | 25208 ft | 395 kts | 110° |
| 2026-04-22 12:38 | 51.45050 | -0.41981 | 25643 ft | 398 kts | 110° |
| 2026-04-22 12:39 | 51.43979 | -0.37870 | 26072 ft | 401 kts | 110° |
| 2026-04-22 12:39 | 51.41811 | -0.29574 | 26874 ft | 407 kts | 110° |
| 2026-04-22 12:39 | 51.40710 | -0.25373 | 27271 ft | 410 kts | 110° |
| 2026-04-22 12:40 | 51.39600 | -0.21144 | 27633 ft | 413 kts | 110° |
| 2026-04-22 12:40 | 51.38482 | -0.16892 | 27970 ft | 416 kts | 110° |
| 2026-04-22 12:40 | 51.37357 | -0.12621 | 28309 ft | 418 kts | 110° |
| 2026-04-22 12:40 | 51.36221 | -0.08318 | 28636 ft | 421 kts | 110° |
| 2026-04-22 12:41 | 51.35076 | -0.03987 | 28959 ft | 424 kts | 110° |
| 2026-04-22 12:41 | 51.33847 | 0.00321 | 29247 ft | 428 kts | 116° |
| 2026-04-22 12:41 | 51.32238 | 0.04354 | 29545 ft | 433 kts | 126° |
| 2026-04-22 12:41 | 51.30285 | 0.08042 | 29830 ft | 436 kts | 131° |
| 2026-04-22 12:42 | 51.28219 | 0.11606 | 30114 ft | 438 kts | 133° |
| 2026-04-22 12:42 | 51.26088 | 0.15103 | 30424 ft | 439 kts | 134° |
| 2026-04-22 12:42 | 51.23961 | 0.18512 | 30724 ft | 439 kts | 134° |
| 2026-04-22 12:42 | 51.21806 | 0.21943 | 31268 ft | 438 kts | 134° |
| 2026-04-22 12:43 | 51.19654 | 0.25372 | 31516 ft | 437 kts | 134° |
| 2026-04-22 12:43 | 51.15354 | 0.32260 | 31564 ft | 438 kts | 134° |
| 2026-04-22 12:44 | 51.11074 | 0.39144 | 31560 ft | 438 kts | 134° |
| 2026-04-22 12:44 | 51.06785 | 0.46039 | 31541 ft | 438 kts | 134° |
| 2026-04-22 12:45 | 51.02493 | 0.52918 | 31494 ft | 439 kts | 134° |
| 2026-04-22 12:45 | 50.98187 | 0.59797 | 31317 ft | 439 kts | 134° |
| 2026-04-22 12:46 | 50.93876 | 0.66662 | 31316 ft | 439 kts | 134° |
| 2026-04-22 12:46 | 50.89556 | 0.73525 | 31320 ft | 440 kts | 134° |
| 2026-04-22 12:47 | 50.85227 | 0.80383 | 31316 ft | 440 kts | 134° |
| 2026-04-22 12:47 | 50.80889 | 0.87235 | 31318 ft | 441 kts | 134° |
| 2026-04-22 12:48 | 50.77275 | 0.92929 | 31315 ft | 441 kts | 134° |
| 2026-04-22 12:48 | 50.72214 | 1.00881 | 31308 ft | 442 kts | 134° |
| 2026-04-22 12:49 | 50.68560 | 1.06607 | 31303 ft | 442 kts | 134° |
| 2026-04-22 12:49 | 50.64195 | 1.13429 | 31290 ft | 442 kts | 134° |
| 2026-04-22 12:50 | 50.59818 | 1.20252 | 31278 ft | 443 kts | 134° |
| 2026-04-22 12:50 | 50.55434 | 1.27066 | 31272 ft | 443 kts | 134° |
| 2026-04-22 12:51 | 50.51229 | 1.33859 | 31267 ft | 442 kts | 127° |
| 2026-04-22 12:51 | 50.49503 | 1.37829 | 31266 ft | 439 kts | 116° |
| 2026-04-22 12:51 | 50.48267 | 1.42115 | 31269 ft | 436 kts | 107° |
| 2026-04-22 12:52 | 50.46324 | 1.51112 | 31266 ft | 435 kts | 103° |
| 2026-04-22 12:52 | 50.44586 | 1.60207 | 31268 ft | 435 kts | 102° |
| 2026-04-22 12:53 | 50.42848 | 1.69298 | 31269 ft | 435 kts | 103° |
| 2026-04-22 12:53 | 50.41072 | 1.78373 | 31266 ft | 435 kts | 103° |
| 2026-04-22 12:54 | 50.39363 | 1.86976 | 31259 ft | 435 kts | 103° |
| 2026-04-22 12:54 | 50.37566 | 1.95960 | 31262 ft | 435 kts | 103° |
| 2026-04-22 12:55 | 50.35752 | 2.04992 | 31261 ft | 435 kts | 103° |
| 2026-04-22 12:55 | 50.33931 | 2.14023 | 31269 ft | 435 kts | 103° |
| 2026-04-22 12:56 | 50.32106 | 2.23035 | 31266 ft | 434 kts | 103° |
| 2026-04-22 12:56 | 50.30280 | 2.32008 | 31266 ft | 434 kts | 103° |
| 2026-04-22 12:57 | 50.28440 | 2.41015 | 31263 ft | 433 kts | 103° |
| 2026-04-22 12:57 | 50.26599 | 2.49978 | 31262 ft | 433 kts | 103° |
| 2026-04-22 12:58 | 50.24752 | 2.58937 | 31268 ft | 433 kts | 104° |
| 2026-04-22 12:58 | 50.22900 | 2.67874 | 31265 ft | 432 kts | 104° |
| 2026-04-22 12:59 | 50.21046 | 2.76784 | 31267 ft | 431 kts | 104° |
| 2026-04-22 12:59 | 50.19190 | 2.85663 | 31266 ft | 430 kts | 104° |
| 2026-04-22 13:00 | 50.17331 | 2.94523 | 31266 ft | 429 kts | 104° |
| 2026-04-22 13:00 | 50.15479 | 3.03304 | 31270 ft | 428 kts | 104° |
| 2026-04-22 13:01 | 50.13612 | 3.12119 | 31272 ft | 428 kts | 105° |
| 2026-04-22 13:01 | 50.11741 | 3.20916 | 31274 ft | 427 kts | 105° |
| 2026-04-22 13:02 | 50.09868 | 3.29683 | 31272 ft | 426 kts | 105° |
| 2026-04-22 13:02 | 50.07995 | 3.38416 | 31273 ft | 425 kts | 105° |
| 2026-04-22 13:03 | 50.06121 | 3.47113 | 31275 ft | 423 kts | 105° |
| 2026-04-22 13:03 | 50.04244 | 3.55785 | 31275 ft | 422 kts | 105° |
| 2026-04-22 13:04 | 50.02367 | 3.64427 | 31266 ft | 421 kts | 105° |
| 2026-04-22 13:04 | 50.00484 | 3.73056 | 31266 ft | 421 kts | 105° |
| 2026-04-22 13:05 | 49.98595 | 3.81677 | 31277 ft | 421 kts | 105° |
| 2026-04-22 13:05 | 49.96701 | 3.90289 | 31272 ft | 421 kts | 106° |
| 2026-04-22 13:06 | 49.94802 | 3.98881 | 31265 ft | 421 kts | 106° |
| 2026-04-22 13:06 | 49.92897 | 4.07470 | 31270 ft | 420 kts | 106° |
| 2026-04-22 13:07 | 49.91002 | 4.15974 | 31270 ft | 420 kts | 106° |
| 2026-04-22 13:07 | 49.89090 | 4.24526 | 31265 ft | 419 kts | 106° |
| 2026-04-22 13:08 | 49.87173 | 4.33059 | 31265 ft | 419 kts | 106° |
| 2026-04-22 13:08 | 49.85252 | 4.41577 | 31263 ft | 419 kts | 106° |
| 2026-04-22 13:09 | 49.83325 | 4.50087 | 31265 ft | 418 kts | 106° |
| 2026-04-22 13:09 | 49.81394 | 4.58582 | 31265 ft | 418 kts | 106° |
| 2026-04-22 13:10 | 49.79457 | 4.67071 | 31265 ft | 418 kts | 106° |
| 2026-04-22 13:10 | 49.77514 | 4.75550 | 31262 ft | 418 kts | 106° |
| 2026-04-22 13:11 | 49.75565 | 4.84022 | 31260 ft | 418 kts | 107° |
| 2026-04-22 13:11 | 49.73608 | 4.92494 | 31260 ft | 418 kts | 107° |
| 2026-04-22 13:12 | 49.71645 | 5.00963 | 31257 ft | 418 kts | 107° |
| 2026-04-22 13:12 | 49.69675 | 5.09421 | 31260 ft | 418 kts | 107° |
| 2026-04-22 13:13 | 49.67698 | 5.17880 | 31258 ft | 418 kts | 107° |
| 2026-04-22 13:13 | 49.65731 | 5.26261 | 31251 ft | 418 kts | 107° |
| 2026-04-22 13:14 | 49.63745 | 5.34696 | 31251 ft | 418 kts | 107° |
| 2026-04-22 13:14 | 49.61750 | 5.43134 | 31254 ft | 418 kts | 107° |
| 2026-04-22 13:15 | 49.59752 | 5.51549 | 31253 ft | 418 kts | 107° |
| 2026-04-22 13:15 | 49.57746 | 5.59967 | 31251 ft | 418 kts | 107° |
| 2026-04-22 13:16 | 49.55737 | 5.68367 | 31251 ft | 418 kts | 107° |
| 2026-04-22 13:16 | 49.53723 | 5.76750 | 31253 ft | 417 kts | 107° |
| 2026-04-22 13:17 | 49.51704 | 5.85128 | 31254 ft | 417 kts | 107° |
| 2026-04-22 13:17 | 49.49680 | 5.93491 | 31259 ft | 417 kts | 107° |
| 2026-04-22 13:18 | 49.47649 | 6.01852 | 31262 ft | 417 kts | 107° |
| 2026-04-22 13:18 | 49.45614 | 6.10198 | 31259 ft | 417 kts | 108° |
| 2026-04-22 13:19 | 49.43572 | 6.18538 | 31263 ft | 417 kts | 108° |
| 2026-04-22 13:19 | 49.41525 | 6.26870 | 31260 ft | 417 kts | 108° |
| 2026-04-22 13:20 | 49.39473 | 6.35194 | 31260 ft | 417 kts | 108° |
| 2026-04-22 13:20 | 49.37413 | 6.43506 | 31253 ft | 417 kts | 109° |
| 2026-04-22 13:21 | 49.34814 | 6.51421 | 31248 ft | 419 kts | 116° |
| 2026-04-22 13:21 | 49.31939 | 6.59201 | 31254 ft | 420 kts | 117° |
| 2026-04-22 13:22 | 49.29006 | 6.66938 | 31255 ft | 420 kts | 117° |
| 2026-04-22 13:22 | 49.26071 | 6.74667 | 31260 ft | 420 kts | 117° |
| 2026-04-22 13:23 | 49.23141 | 6.82393 | 31258 ft | 420 kts | 117° |
| 2026-04-22 13:23 | 49.20209 | 6.90114 | 31253 ft | 420 kts | 117° |
| 2026-04-22 13:24 | 49.17274 | 6.97826 | 31260 ft | 420 kts | 117° |
| 2026-04-22 13:24 | 49.14336 | 7.05521 | 31265 ft | 419 kts | 117° |
| 2026-04-22 13:25 | 49.11393 | 7.13203 | 31264 ft | 419 kts | 118° |
| 2026-04-22 13:25 | 49.08445 | 7.20879 | 31264 ft | 419 kts | 118° |
| 2026-04-22 13:26 | 49.05488 | 7.28552 | 31260 ft | 419 kts | 118° |
| 2026-04-22 13:26 | 49.02531 | 7.36206 | 31259 ft | 419 kts | 118° |
| 2026-04-22 13:27 | 48.99591 | 7.43793 | 31258 ft | 419 kts | 118° |
| 2026-04-22 13:27 | 48.96617 | 7.51447 | 31261 ft | 420 kts | 118° |
| 2026-04-22 13:28 | 48.93637 | 7.59092 | 31259 ft | 420 kts | 118° |
| 2026-04-22 13:28 | 48.90653 | 7.66725 | 31250 ft | 420 kts | 118° |
| 2026-04-22 13:29 | 48.87663 | 7.74356 | 31249 ft | 420 kts | 118° |
| 2026-04-22 13:29 | 48.84667 | 7.81977 | 31244 ft | 420 kts | 118° |
| 2026-04-22 13:30 | 48.81666 | 7.89588 | 31239 ft | 420 kts | 118° |
| 2026-04-22 13:30 | 48.78660 | 7.97191 | 31240 ft | 420 kts | 118° |
| 2026-04-22 13:31 | 48.75650 | 8.04782 | 31242 ft | 420 kts | 118° |
| 2026-04-22 13:31 | 48.72635 | 8.12364 | 31238 ft | 420 kts | 118° |
| 2026-04-22 13:32 | 48.69618 | 8.19929 | 31240 ft | 420 kts | 118° |
| 2026-04-22 13:32 | 48.66593 | 8.27493 | 31246 ft | 420 kts | 118° |
| 2026-04-22 13:33 | 48.63578 | 8.35011 | 31241 ft | 420 kts | 119° |
| 2026-04-22 13:33 | 48.60539 | 8.42567 | 31237 ft | 420 kts | 119° |
| 2026-04-22 13:34 | 48.57495 | 8.50115 | 31235 ft | 421 kts | 119° |
| 2026-04-22 13:34 | 48.54444 | 8.57659 | 31239 ft | 421 kts | 119° |
| 2026-04-22 13:35 | 48.51386 | 8.65197 | 31239 ft | 421 kts | 119° |
| 2026-04-22 13:35 | 48.48320 | 8.72735 | 31238 ft | 421 kts | 119° |
| 2026-04-22 13:36 | 48.45253 | 8.80254 | 31235 ft | 421 kts | 119° |
| 2026-04-22 13:36 | 48.42700 | 8.86497 | 31233 ft | 421 kts | 119° |
| 2026-04-22 13:37 | 48.39624 | 8.94000 | 31236 ft | 421 kts | 119° |
| 2026-04-22 13:37 | 48.36017 | 9.02770 | 31233 ft | 421 kts | 119° |
| 2026-04-22 13:38 | 48.33449 | 9.08999 | 31234 ft | 422 kts | 119° |
| 2026-04-22 13:38 | 48.28802 | 9.20229 | 31236 ft | 422 kts | 119° |
| 2026-04-22 13:39 | 48.25696 | 9.27713 | 31236 ft | 422 kts | 120° |
| 2026-04-22 13:39 | 48.22583 | 9.35190 | 31233 ft | 423 kts | 120° |
| 2026-04-22 13:40 | 48.19460 | 9.42669 | 31238 ft | 423 kts | 120° |
| 2026-04-22 13:40 | 48.16333 | 9.50140 | 31238 ft | 423 kts | 120° |
| 2026-04-22 13:41 | 48.13219 | 9.57555 | 31233 ft | 423 kts | 120° |
| 2026-04-22 13:41 | 48.10072 | 9.64998 | 31216 ft | 425 kts | 122° |
| 2026-04-22 13:42 | 48.08084 | 9.68285 | 31001 ft | 428 kts | 137° |
| 2026-04-22 13:42 | 48.05788 | 9.71112 | 30756 ft | 428 kts | 141° |
| 2026-04-22 13:42 | 48.03433 | 9.73831 | 30503 ft | 428 kts | 141° |
| 2026-04-22 13:42 | 48.01067 | 9.76520 | 30252 ft | 427 kts | 141° |
| 2026-04-22 13:43 | 47.98696 | 9.79201 | 29961 ft | 427 kts | 142° |
| 2026-04-22 13:43 | 47.96325 | 9.81877 | 29662 ft | 426 kts | 142° |
| 2026-04-22 13:43 | 47.93961 | 9.84541 | 29363 ft | 424 kts | 141° |
| 2026-04-22 13:43 | 47.91612 | 9.87186 | 29094 ft | 422 kts | 141° |
| 2026-04-22 13:44 | 47.89270 | 9.89821 | 28825 ft | 420 kts | 141° |
| 2026-04-22 13:44 | 47.86937 | 9.92441 | 28541 ft | 419 kts | 141° |
| 2026-04-22 13:44 | 47.84619 | 9.95043 | 28265 ft | 417 kts | 141° |
| 2026-04-22 13:44 | 47.82307 | 9.97635 | 27995 ft | 415 kts | 141° |
| 2026-04-22 13:45 | 47.80034 | 10.00181 | 27726 ft | 413 kts | 141° |
| 2026-04-22 13:45 | 47.77748 | 10.02738 | 27457 ft | 411 kts | 141° |
| 2026-04-22 13:45 | 47.75466 | 10.05288 | 27190 ft | 409 kts | 141° |
| 2026-04-22 13:45 | 47.73201 | 10.07817 | 26924 ft | 407 kts | 141° |
| 2026-04-22 13:46 | 47.70940 | 10.10337 | 26665 ft | 405 kts | 141° |
| 2026-04-22 13:46 | 47.68689 | 10.12844 | 26400 ft | 403 kts | 141° |
| 2026-04-22 13:46 | 47.66451 | 10.15333 | 26141 ft | 401 kts | 141° |
| 2026-04-22 13:46 | 47.64224 | 10.17808 | 25871 ft | 399 kts | 141° |
| 2026-04-22 13:47 | 47.62005 | 10.20270 | 25628 ft | 397 kts | 141° |
| 2026-04-22 13:47 | 47.59795 | 10.22720 | 25379 ft | 395 kts | 141° |
| 2026-04-22 13:47 | 47.57600 | 10.25152 | 25131 ft | 393 kts | 141° |
| 2026-04-22 13:47 | 47.55411 | 10.27573 | 24877 ft | 391 kts | 141° |
| 2026-04-22 13:48 | 47.53239 | 10.29974 | 24634 ft | 389 kts | 141° |
| 2026-04-22 13:48 | 47.51076 | 10.32362 | 24391 ft | 387 kts | 141° |
| 2026-04-22 13:48 | 47.48921 | 10.34739 | 24154 ft | 385 kts | 141° |
| 2026-04-22 13:48 | 47.46782 | 10.37095 | 23905 ft | 382 kts | 141° |
| 2026-04-22 13:49 | 47.44650 | 10.39441 | 23673 ft | 381 kts | 141° |
| 2026-04-22 13:49 | 47.42528 | 10.41775 | 23380 ft | 379 kts | 141° |
| 2026-04-22 13:49 | 47.40418 | 10.44093 | 23100 ft | 378 kts | 141° |
| 2026-04-22 13:49 | 47.38330 | 10.46384 | 22825 ft | 376 kts | 141° |
| 2026-04-22 13:50 | 47.36239 | 10.48677 | 22544 ft | 374 kts | 141° |
| 2026-04-22 13:50 | 47.34153 | 10.50961 | 22271 ft | 372 kts | 141° |
| 2026-04-22 13:50 | 47.32076 | 10.53233 | 22008 ft | 371 kts | 141° |
| 2026-04-22 13:50 | 47.30061 | 10.55592 | 21742 ft | 369 kts | 134° |
| 2026-04-22 13:51 | 47.28430 | 10.58450 | 21478 ft | 362 kts | 118° |
| 2026-04-22 13:51 | 47.27331 | 10.61741 | 21215 ft | 357 kts | 109° |
| 2026-04-22 13:51 | 47.26434 | 10.65136 | 20956 ft | 355 kts | 107° |
| 2026-04-22 13:51 | 47.25583 | 10.68491 | 20699 ft | 343 kts | 107° |
| 2026-04-22 13:52 | 47.24763 | 10.71718 | 20432 ft | 331 kts | 107° |
| 2026-04-22 13:52 | 47.23963 | 10.74849 | 20173 ft | 322 kts | 107° |
| 2026-04-22 13:52 | 47.23180 | 10.77891 | 19913 ft | 313 kts | 107° |
| 2026-04-22 13:52 | 47.22418 | 10.80843 | 19660 ft | 304 kts | 107° |
| 2026-04-22 13:53 | 47.21673 | 10.83722 | 19424 ft | 299 kts | 107° |
| 2026-04-22 13:53 | 47.20938 | 10.86559 | 19180 ft | 296 kts | 107° |
| 2026-04-22 13:53 | 47.20205 | 10.89382 | 18945 ft | 295 kts | 107° |
| 2026-04-22 13:53 | 47.19476 | 10.92186 | 18696 ft | 293 kts | 107° |
| 2026-04-22 13:54 | 47.18747 | 10.94982 | 18453 ft | 291 kts | 108° |
| 2026-04-22 13:54 | 47.18021 | 10.97762 | 18186 ft | 291 kts | 107° |
| 2026-04-22 13:54 | 47.17298 | 11.00526 | 17915 ft | 289 kts | 107° |
| 2026-04-22 13:54 | 47.16578 | 11.03279 | 17640 ft | 288 kts | 107° |
| 2026-04-22 13:55 | 47.15860 | 11.06019 | 17378 ft | 286 kts | 107° |
| 2026-04-22 13:55 | 47.15147 | 11.08739 | 17116 ft | 285 kts | 107° |
| 2026-04-22 13:55 | 47.14436 | 11.11447 | 16852 ft | 283 kts | 107° |
| 2026-04-22 13:55 | 47.13737 | 11.14102 | 16588 ft | 282 kts | 107° |
| 2026-04-22 13:56 | 47.13032 | 11.16785 | 16338 ft | 281 kts | 107° |
| 2026-04-22 13:56 | 47.12329 | 11.19453 | 16073 ft | 280 kts | 108° |
| 2026-04-22 13:56 | 47.11647 | 11.22035 | 15824 ft | 277 kts | 108° |
| 2026-04-22 13:56 | 47.10931 | 11.24742 | 15565 ft | 276 kts | 108° |
| 2026-04-22 13:57 | 47.10236 | 11.27370 | 15314 ft | 275 kts | 108° |
| 2026-04-22 13:57 | 47.09544 | 11.29981 | 15064 ft | 274 kts | 108° |
| 2026-04-22 13:57 | 47.08856 | 11.32576 | 14822 ft | 273 kts | 108° |
| 2026-04-22 13:57 | 47.08169 | 11.35166 | 14576 ft | 272 kts | 108° |
| 2026-04-22 13:58 | 47.07490 | 11.37721 | 14366 ft | 268 kts | 108° |
| 2026-04-22 13:58 | 47.06812 | 11.40268 | 14078 ft | 267 kts | 108° |
| 2026-04-22 13:58 | 47.06139 | 11.42798 | 14110 ft | 266 kts | 108° |
| 2026-04-22 13:58 | 47.05462 | 11.45339 | 14168 ft | 269 kts | 108° |
| 2026-04-22 13:59 | 47.04781 | 11.47893 | 14194 ft | 269 kts | 108° |
| 2026-04-22 13:59 | 47.04234 | 11.50499 | 14190 ft | 266 kts | 97° |
| 2026-04-22 13:59 | 47.04123 | 11.53180 | 14178 ft | 262 kts | 82° |
| 2026-04-22 13:59 | 47.04525 | 11.55758 | 14180 ft | 258 kts | 66° |
| 2026-04-22 14:00 | 47.05268 | 11.58122 | 14179 ft | 252 kts | 61° |
| 2026-04-22 14:00 | 47.06071 | 11.60376 | 14177 ft | 248 kts | 60° |
| 2026-04-22 14:00 | 47.06877 | 11.62602 | 14177 ft | 247 kts | 59° |
| 2026-04-22 14:00 | 47.07679 | 11.64829 | 14180 ft | 246 kts | 60° |
| 2026-04-22 14:01 | 47.08477 | 11.67059 | 14199 ft | 246 kts | 60° |
| 2026-04-22 14:01 | 47.09270 | 11.69281 | 14182 ft | 246 kts | 60° |
| 2026-04-22 14:01 | 47.10051 | 11.71480 | 14181 ft | 245 kts | 60° |
| 2026-04-22 14:01 | 47.10841 | 11.73702 | 14188 ft | 245 kts | 59° |
| 2026-04-22 14:02 | 47.11759 | 11.75801 | 14182 ft | 244 kts | 49° |
| 2026-04-22 14:02 | 47.12897 | 11.77638 | 14212 ft | 243 kts | 44° |
| 2026-04-22 14:02 | 47.14094 | 11.79394 | 14199 ft | 243 kts | 43° |
| 2026-04-22 14:02 | 47.15302 | 11.81136 | 14161 ft | 245 kts | 43° |
| 2026-04-22 14:03 | 47.16529 | 11.82908 | 13706 ft | 248 kts | 43° |
| 2026-04-22 14:03 | 47.17751 | 11.84679 | 13352 ft | 247 kts | 43° |
| 2026-04-22 14:03 | 47.18951 | 11.86424 | 13044 ft | 246 kts | 44° |
| 2026-04-22 14:03 | 47.20192 | 11.88133 | 12819 ft | 241 kts | 37° |
| 2026-04-22 14:04 | 47.21597 | 11.89397 | 12690 ft | 234 kts | 22° |
| 2026-04-22 14:04 | 47.23141 | 11.90043 | 12582 ft | 229 kts | 11° |
| 2026-04-22 14:04 | 47.24714 | 11.90405 | 12318 ft | 230 kts | 8° |
| 2026-04-22 14:04 | 47.26319 | 11.90716 | 11944 ft | 234 kts | 8° |
| 2026-04-22 14:05 | 47.27943 | 11.91022 | 11563 ft | 236 kts | 8° |
| 2026-04-22 14:05 | 47.29567 | 11.91332 | 11182 ft | 234 kts | 8° |
| 2026-04-22 14:05 | 47.32727 | 11.91946 | 10445 ft | 228 kts | 9° |
| 2026-04-22 14:06 | 47.34304 | 11.92258 | 10077 ft | 228 kts | 9° |
| 2026-04-22 14:06 | 47.35871 | 11.92496 | 9682 ft | 225 kts | 1° |
| 2026-04-22 14:06 | 47.37391 | 11.92083 | 9543 ft | 224 kts | 338° |
| 2026-04-22 14:06 | 47.38643 | 11.90735 | 9543 ft | 227 kts | 311° |
| 2026-04-22 14:07 | 47.39336 | 11.88638 | 9532 ft | 232 kts | 282° |
| 2026-04-22 14:07 | 47.39266 | 11.86274 | 9533 ft | 234 kts | 252° |
| 2026-04-22 14:07 | 47.38525 | 11.84125 | 9547 ft | 237 kts | 237° |
| 2026-04-22 14:07 | 47.37672 | 11.82113 | 9458 ft | 236 kts | 243° |
| 2026-04-22 14:08 | 47.36984 | 11.79959 | 9126 ft | 230 kts | 248° |
| 2026-04-22 14:08 | 47.36370 | 11.77820 | 8721 ft | 225 kts | 248° |
| 2026-04-22 14:08 | 47.35781 | 11.75704 | 8390 ft | 222 kts | 248° |
| 2026-04-22 14:08 | 47.35205 | 11.73625 | 8056 ft | 219 kts | 248° |
| 2026-04-22 14:09 | 47.34631 | 11.71553 | 7730 ft | 219 kts | 248° |
| 2026-04-22 14:09 | 47.34057 | 11.69483 | 7424 ft | 218 kts | 248° |
| 2026-04-22 14:09 | 47.33491 | 11.67449 | 7075 ft | 211 kts | 248° |
| 2026-04-22 14:09 | 47.32940 | 11.65471 | 6735 ft | 207 kts | 249° |
| 2026-04-22 14:10 | 47.32402 | 11.63540 | 6387 ft | 201 kts | 249° |
| 2026-04-22 14:10 | 47.31880 | 11.61665 | 6098 ft | 196 kts | 248° |
| 2026-04-22 14:10 | 47.31364 | 11.59813 | 5777 ft | 194 kts | 248° |
| 2026-04-22 14:10 | 47.30851 | 11.57974 | 5478 ft | 194 kts | 250° |
| 2026-04-22 14:11 | 47.30337 | 11.56142 | 5168 ft | 193 kts | 250° |
| 2026-04-22 14:11 | 47.29830 | 11.54331 | 4853 ft | 189 kts | 249° |
| 2026-04-22 14:11 | 47.29342 | 11.52583 | 4634 ft | 184 kts | 250° |
| 2026-04-22 14:11 | 47.28858 | 11.50846 | 4372 ft | 183 kts | 249° |
| 2026-04-22 14:12 | 47.28366 | 11.49091 | 4099 ft | 187 kts | 249° |
| 2026-04-22 14:12 | 47.27868 | 11.47306 | 3773 ft | 189 kts | 249° |
| 2026-04-22 14:12 | 47.27371 | 11.45522 | 3474 ft | 188 kts | 250° |
| 2026-04-22 14:12 | 47.27012 | 11.43453 | 3242 ft | 222 kts | 256° |
| 2026-04-22 14:13 | 47.26759 | 11.41301 | 2970 ft | 203 kts | 257° |
| 2026-04-22 14:13 | 47.26524 | 11.39468 | 2765 ft | 165 kts | 262° |
| 2026-04-22 14:13 | 47.26388 | 11.37873 | 2439 ft | 152 kts | 263° |
| 2026-04-22 14:13 | 47.26229 | 11.36359 | 2117 ft | 147 kts | 260° |
| 2026-04-22 14:14 | 47.26084 | 11.34980 | 1916 ft | 117 kts | 259° |
| 2026-04-22 14:14 | 47.25989 | 11.34088 | 1920 ft | 48 kts | 260° |
| 2026-04-22 14:14 | 47.25953 | 11.33765 | 1924 ft | 23 kts | 262° |
| 2026-04-22 14:14 | 47.25899 | 11.33699 | 1926 ft | 7 kts | 154° |
| 2026-04-22 14:15 | 47.25861 | 11.33758 | 1926 ft | 8 kts | 120° |
| 2026-04-22 14:15 | 47.25830 | 11.33834 | 1924 ft | 10 kts | 121° |
| 2026-04-22 14:15 | 47.25788 | 11.33931 | 1919 ft | 13 kts | 123° |
| 2026-04-22 14:15 | 47.25774 | 11.34076 | 1906 ft | 15 kts | 78° |
| 2026-04-22 14:16 | 47.25791 | 11.34219 | 1908 ft | 13 kts | 82° |
| 2026-04-22 14:16 | 47.25800 | 11.34336 | 1908 ft | 11 kts | 83° |
| 2026-04-22 14:16 | 47.25811 | 11.34439 | 1898 ft | 9 kts | 80° |
| 2026-04-22 14:16 | 47.25822 | 11.34529 | 1902 ft | 9 kts | 80° |
| 2026-04-22 14:17 | 47.25831 | 11.34612 | 1910 ft | 8 kts | 80° |
| 2026-04-22 14:17 | 47.25840 | 11.34689 | 1901 ft | 7 kts | 81° |
| 2026-04-22 14:17 | 47.25848 | 11.34767 | 1900 ft | 7 kts | 82° |
| 2026-04-22 14:17 | 47.25852 | 11.34836 | 1903 ft | 6 kts | 88° |
| 2026-04-22 14:18 | 47.25854 | 11.34900 | 1903 ft | 6 kts | 84° |
| 2026-04-22 14:18 | 47.25846 | 11.34921 | 1897 ft | 1 kts | 148° |
| 2026-04-22 14:18 | 47.25841 | 11.34921 | 1898 ft | 1 kts | 171° |
| 2026-04-22 14:18 | 47.25813 | 11.34926 | 1902 ft | 4 kts | 173° |
| 2026-04-22 14:19 | 47.25812 | 11.34927 | 1902 ft | 0 kts | 173° |